Time;durP1;ratioP1;P1;durP2;ratioP2;P2;SDS_P1;SDS_P2;PMS_P1;PMS_P2;Temp;Humidity;BMP_temperature;BMP_pressure;BME280_temperature;BME280_humidity;BME280_pressure;Samples;Min_cycle;Max_cycle;Signal;HPM_P1;HPM_P2
2021/06/24 00:01:12;;;;;;;14.23;6.97;;;18.70;78.10;;;18.24;68.99;100992.22;4953072;28;20050;-91
2021/06/24 00:03:41;;;;;;;13.77;6.90;;;18.70;78.30;;;18.26;68.92;100992.84;4952888;29;20122;-91
2021/06/24 00:06:09;;;;;;;14.32;6.90;;;18.70;78.00;;;18.23;68.58;100989.69;4952578;28;20471;-91
2021/06/24 00:08:37;;;;;;;17.02;7.15;;;18.60;78.00;;;18.19;68.90;100983.78;4952770;28;20125;-91
2021/06/24 00:11:08;;;;;;;14.15;7.00;;;18.60;78.30;;;18.16;69.02;100981.47;4952727;28;20095;-91
2021/06/24 00:13:35;;;;;;;14.57;7.15;;;18.60;78.30;;;18.16;68.90;100990.59;4952742;28;20098;-91
2021/06/24 00:16:04;;;;;;;15.80;7.13;;;18.60;78.20;;;18.17;68.90;100996.94;4951180;29;20063;-90
2021/06/24 00:18:31;;;;;;;14.38;7.68;;;18.60;78.20;;;18.16;69.09;100996.09;4952919;28;20043;-91
2021/06/24 00:21:00;;;;;;;13.02;8.13;;;18.60;78.30;;;18.16;69.07;100990.59;4952676;28;20046;-91
2021/06/24 00:23:27;;;;;;;15.02;7.72;;;18.60;78.10;;;18.15;69.23;100988.06;4952696;28;20058;-91
2021/06/24 00:25:55;;;;;;;16.65;7.72;;;18.60;78.20;;;18.12;69.22;100992.09;4952420;28;20044;-90
2021/06/24 00:28:26;;;;;;;12.55;7.15;;;18.60;78.40;;;18.12;69.18;100994.00;4950886;28;20518;-91
2021/06/24 00:30:56;;;;;;;;;;;18.60;78.30;;;18.11;69.19;100993.16;4967362;28;20051;-90
2021/06/24 00:33:23;;;;;;;14.30;8.27;;;18.60;78.30;;;18.12;69.08;100991.25;4952479;28;20009;-91
2021/06/24 00:35:51;;;;;;;12.57;8.35;;;18.50;78.30;;;18.10;68.96;100991.47;4950901;28;20055;-91
2021/06/24 00:38:23;;;;;;;14.73;8.23;;;18.50;78.30;;;18.12;69.13;100994.00;4952358;28;20039;-90
2021/06/24 00:40:51;;;;;;;16.27;8.00;;;18.50;78.40;;;18.11;68.98;100992.34;4952384;29;20054;-91
2021/06/24 00:43:22;;;;;;;14.63;7.35;;;18.50;78.40;;;18.10;69.04;100985.13;4966774;28;20051;-90
2021/06/24 00:45:52;;;;;;;14.60;7.93;;;18.40;78.50;;;18.10;69.14;100990.63;4951161;29;20055;-91
2021/06/24 00:48:21;;;;;;;14.10;7.85;;;18.50;78.60;;;18.11;69.18;100986.81;4965898;28;20396;-91
2021/06/24 00:50:51;;;;;;;11.10;7.32;;;18.50;78.70;;;18.08;69.31;100996.34;4966816;28;20475;-91
2021/06/24 00:53:23;;;;;;;16.50;7.53;;;18.50;79.10;;;18.03;70.07;100992.59;4950718;28;20047;-91
2021/06/24 00:55:52;;;;;;;12.57;7.57;;;18.50;79.30;;;18.02;69.86;100989.00;4966478;28;20166;-91
2021/06/24 00:58:26;;;;;;;18.95;8.05;;;18.50;79.00;;;18.05;69.63;100993.19;4966742;28;20047;-90
2021/06/24 01:00:57;;;;;;;13.85;6.93;;;18.50;79.00;;;18.04;69.75;100997.03;4966690;28;20051;-91
2021/06/24 01:03:26;;;;;;;13.88;7.32;;;18.40;79.20;;;18.02;69.88;100994.50;4966450;28;20047;-91
2021/06/24 01:05:54;;;;;;;13.00;7.50;;;18.40;79.30;;;18.02;70.04;100989.00;4951586;29;20564;-91
2021/06/24 01:08:28;;;;;;;13.55;7.05;;;18.40;79.50;;;18.00;70.33;100996.63;4979008;28;20589;-91
2021/06/24 01:11:00;;;;;;;10.75;6.88;;;18.40;79.70;;;18.00;69.75;100996.63;4971158;28;20054;-91
2021/06/24 01:13:28;;;;;;;13.95;7.50;;;18.40;79.20;;;18.00;70.19;100995.78;4985786;28;20050;-91
2021/06/24 01:15:56;;;;;;;12.23;7.10;;;18.40;79.70;;;17.98;69.95;100993.25;4970553;28;20059;-90
2021/06/24 01:18:23;;;;;;;15.35;7.25;;;18.40;79.60;;;17.95;70.06;100986.31;4985574;28;20880;-91
2021/06/24 01:20:53;;;;;;;17.45;8.15;;;18.40;79.40;;;17.99;69.98;100989.41;4985240;28;20122;-91
2021/06/24 01:23:24;;;;;;;16.17;7.45;;;18.40;79.40;;;17.97;70.12;100984.16;4982848;28;20054;-91
2021/06/24 01:25:54;;;;;;;14.02;7.63;;;18.40;79.70;;;17.95;70.07;100988.19;4985376;28;20067;-91
2021/06/24 01:28:22;;;;;;;15.02;8.02;;;18.40;79.60;;;17.97;70.02;100980.53;4969156;28;20054;-91
2021/06/24 01:30:50;;;;;;;16.48;8.07;;;18.40;79.50;;;17.95;70.21;100983.53;4969562;28;20057;-91
2021/06/24 01:33:17;;;;;;;18.92;7.82;;;18.40;79.60;;;17.96;70.23;100985.22;4969114;28;20043;-91
2021/06/24 01:35:45;;;;;;;16.00;7.93;;;18.40;79.90;;;17.97;70.13;100975.91;4969155;28;20050;-90
2021/06/24 01:38:13;;;;;;;13.43;7.60;;;18.40;79.70;;;17.95;70.26;100978.03;4968070;28;20412;-92
2021/06/24 01:41:01;;;;;;;17.83;8.02;;;18.40;79.90;;;17.96;70.05;100974.19;4970726;28;20081;-91
2021/06/24 01:43:31;;;;;;;14.73;7.85;;;18.30;80.00;;;17.95;70.15;100967.03;4970240;28;20046;-91
2021/06/24 01:46:00;;;;;;;16.80;8.35;;;18.30;80.00;;;17.92;70.32;100963.88;4970207;28;20043;-91
2021/06/24 01:48:28;;;;;;;18.10;8.45;;;18.30;80.10;;;17.91;70.46;100960.25;4968645;28;20051;-90
2021/06/24 01:50:58;;;;;;;12.75;7.10;;;18.30;80.40;;;17.89;70.78;100962.38;4970367;28;20043;-91
2021/06/24 01:53:26;;;;;;;15.50;8.00;;;18.30;80.60;;;17.87;71.37;100960.94;4968844;28;20654;-91
2021/06/24 01:55:54;;;;;;;12.85;7.82;;;18.30;80.80;;;17.87;71.03;100956.25;4968633;28;20507;-90
2021/06/24 01:58:27;;;;;;;13.30;8.55;;;18.30;80.60;;;17.85;71.29;100950.13;4968622;28;20106;-90
2021/06/24 02:01:07;;;;;;;13.65;7.82;;;18.30;81.10;;;17.88;71.12;100955.19;4970410;28;20051;-90
2021/06/24 02:03:40;;;;;;;13.90;8.40;;;18.30;80.70;;;17.90;70.82;100943.97;4968723;28;20133;-91
2021/06/24 02:06:09;;;;;;;13.63;8.35;;;18.30;80.70;;;17.85;71.39;100939.09;4968354;28;20583;-91
2021/06/24 02:08:38;;;;;;;13.38;8.00;;;18.30;81.00;;;17.86;71.40;100945.44;4968292;28;20134;-91
2021/06/24 02:11:26;;;;;;;17.55;8.55;;;18.30;81.00;;;17.85;71.31;100944.63;4958902;28;20145;-91
2021/06/24 02:14:02;;;;;;;12.48;8.25;;;18.20;80.80;;;17.86;71.00;100945.44;4984726;28;20137;-90
2021/06/24 02:16:29;;;;;;;17.83;9.38;;;18.30;80.80;;;17.86;70.96;100939.94;4984223;28;20514;-91
2021/06/24 02:18:58;;;;;;;14.73;9.07;;;18.20;80.80;;;17.86;71.12;100939.94;4984492;28;20070;-91
2021/06/24 02:21:45;;;;;;;15.27;8.65;;;18.20;80.90;;;17.85;71.25;100933.59;4969972;28;20058;-90
2021/06/24 02:24:15;;;;;;;17.25;9.13;;;18.20;80.90;;;17.83;71.37;100938.47;4984742;28;20097;-90
2021/06/24 02:26:49;;;;;;;15.27;8.57;;;18.20;81.00;;;17.84;71.30;100937.44;4984297;28;20042;-91
2021/06/24 02:29:37;;;;;;;15.45;9.82;;;18.20;81.10;;;17.84;71.10;100939.28;5002708;23;20053;-77
2021/06/24 02:32:06;;;;;;;15.85;9.43;;;18.20;81.10;;;17.83;71.30;100940.38;5026650;28;20060;-77
2021/06/24 02:34:47;;;;;;;17.50;10.32;;;18.20;81.30;;;17.83;71.47;100940.38;5026609;28;20056;-77
2021/06/24 02:37:41;;;;;;;19.45;10.35;;;18.20;81.20;;;17.83;71.53;100945.88;5021492;28;20498;-77
2021/06/24 02:40:31;;;;;;;17.48;10.68;;;18.20;81.40;;;17.81;71.43;100937.84;5026548;28;20077;-77
2021/06/24 02:42:59;;;;;;;15.57;9.35;;;18.20;81.20;;;17.78;71.97;100933.63;5026585;28;20046;-77
2021/06/24 02:45:32;;;;;;;19.23;11.20;;;18.20;81.70;;;17.78;71.87;100927.25;5026291;28;20041;-77
2021/06/24 02:48:00;;;;;;;19.52;10.73;;;18.20;81.40;;;17.78;71.65;100930.00;5026195;28;20041;-77
2021/06/24 02:50:28;;;;;;;17.25;11.02;;;18.10;81.40;;;17.75;72.11;100928.56;5026177;28;20140;-77
2021/06/24 02:53:03;;;;;;;16.63;10.43;;;18.20;81.90;;;17.75;72.30;100933.22;5026609;28;20119;-77
2021/06/24 02:55:31;;;;;;;19.27;9.80;;;18.20;81.90;;;17.75;72.01;100922.22;5026371;28;20556;-77
2021/06/24 02:57:59;;;;;;;19.40;10.75;;;18.10;81.90;;;17.77;72.11;100931.09;5026273;28;20041;-77
2021/06/24 03:00:51;;;;;;;28.25;13.65;;;18.10;81.70;;;17.74;72.28;100918.63;5026157;28;20132;-77
2021/06/24 03:03:42;;;;;;;17.38;10.88;;;18.10;81.90;;;17.76;71.85;100924.75;5008108;28;20803;-77
2021/06/24 03:06:22;;;;;;;20.25;10.52;;;18.10;81.80;;;17.73;71.87;100913.34;5025970;28;20060;-77
2021/06/24 03:08:51;;;;;;;20.88;11.02;;;18.10;82.20;;;17.72;72.41;100917.16;5027680;28;20579;-77
2021/06/24 03:11:23;;;;;;;17.88;10.52;;;18.10;82.20;;;17.71;72.59;100910.81;5028703;28;20489;-77
2021/06/24 03:13:54;;;;;;;20.73;11.32;;;18.10;82.40;;;17.70;72.41;100920.13;5031604;28;20068;-77
2021/06/24 03:16:41;;;;;;;18.45;11.18;;;18.10;82.20;;;17.70;72.42;100917.34;5031187;28;20053;-77
2021/06/24 03:19:10;;;;;;;24.27;11.13;;;18.10;82.20;;;17.72;72.29;100917.16;5027090;28;20124;-77
2021/06/24 03:21:46;;;;;;;21.58;11.13;;;18.10;82.00;;;17.73;72.04;100919.69;5029964;28;20068;-77
2021/06/24 03:24:14;;;;;;;15.23;10.32;;;18.10;82.10;;;17.74;72.14;100926.03;5031342;28;20046;-77
2021/06/24 03:26:42;;;;;;;22.35;10.70;;;18.10;82.00;;;17.72;72.18;100928.16;5031212;28;20410;-77
2021/06/24 03:29:11;;;;;;;18.05;10.80;;;18.00;82.10;;;17.71;72.19;100921.81;5029423;28;20060;-77
2021/06/24 03:31:46;;;;;;;19.63;11.13;;;18.00;82.20;;;17.71;72.25;100927.31;5029784;28;20865;-77
2021/06/24 03:34:17;;;;;;;18.90;11.60;;;18.00;82.30;;;17.71;72.00;100921.81;5031435;28;20156;-77
2021/06/24 03:36:46;;;;;;;22.90;10.80;;;18.00;82.20;;;17.69;72.21;100914.84;5029390;28;20133;-77
2021/06/24 03:39:13;;;;;;;19.70;10.43;;;17.90;82.40;;;17.68;72.15;100911.22;5029482;28;20057;-77
2021/06/24 03:41:41;;;;;;;18.33;11.18;;;17.90;82.50;;;17.68;72.45;100913.16;5029447;28;20045;-77
2021/06/24 03:44:08;;;;;;;20.10;10.35;;;17.90;82.60;;;17.65;72.37;100908.94;5031074;28;20129;-77
2021/06/24 03:46:36;;;;;;;14.68;10.43;;;17.90;82.60;;;17.66;72.58;100913.38;5029125;28;20501;-77
2021/06/24 03:49:05;;;;;;;21.20;10.57;;;18.00;82.60;;;17.67;72.46;100911.44;5029425;28;20076;-77
2021/06/24 03:51:33;;;;;;;19.15;10.68;;;18.00;82.50;;;17.66;72.53;100907.03;5029210;28;20670;-77
2021/06/24 03:54:04;;;;;;;20.85;11.23;;;18.00;82.50;;;17.65;72.74;100916.34;5029457;28;20068;-77
2021/06/24 03:56:36;;;;;;;21.23;10.52;;;18.00;82.60;;;17.65;72.60;100917.22;5028901;28;20053;-77
2021/06/24 03:59:11;;;;;;;21.23;11.20;;;18.00;82.50;;;17.66;72.64;100913.38;5029255;28;20049;-77
2021/06/24 04:01:42;;;;;;;17.27;10.15;;;18.00;82.40;;;17.66;72.74;100918.88;5029117;28;20068;-77
2021/06/24 04:04:12;;;;;;;19.05;11.88;;;18.00;82.40;;;17.67;72.56;100908.69;5030752;28;20429;-77
2021/06/24 04:06:54;;;;;;;16.70;10.35;;;18.10;82.40;;;17.65;72.48;100917.22;5030370;28;20516;-77
2021/06/24 04:09:22;;;;;;;18.52;11.35;;;18.00;82.40;;;17.65;72.54;100919.09;5030320;28;20037;-77
2021/06/24 04:11:50;;;;;;;17.08;10.82;;;18.00;82.40;;;17.65;72.69;100910.84;5030498;28;20100;-77
2021/06/24 04:14:40;;;;;;;22.35;10.77;;;18.00;82.40;;;17.65;72.68;100897.06;5030173;28;20049;-77
2021/06/24 04:17:25;;;;;;;17.60;10.93;;;18.00;82.50;;;17.65;72.57;100900.69;5030083;28;20053;-77
2021/06/24 04:19:56;;;;;;;18.90;10.88;;;18.00;82.50;;;17.64;72.71;100901.75;5028756;28;20045;-77
2021/06/24 04:22:24;;;;;;;19.65;11.68;;;18.00;82.60;;;17.65;72.76;100894.31;5027556;28;20053;-77
2021/06/24 04:25:21;;;;;;;20.20;10.80;;;18.00;82.60;;;17.65;72.88;100899.81;5019725;28;20516;-77
2021/06/24 04:27:51;;;;;;;18.95;10.80;;;18.00;82.70;;;17.65;72.87;100905.31;5029866;28;20139;-77
2021/06/24 04:30:22;;;;;;;21.17;11.65;;;18.00;82.70;;;17.63;72.91;100901.97;5028405;28;20128;-77
2021/06/24 04:32:52;;;;;;;22.30;11.38;;;18.00;82.80;;;17.63;72.99;100901.97;5030253;28;20057;-77
2021/06/24 04:35:28;;;;;;;17.45;10.55;;;18.00;82.50;;;17.64;73.20;100903.66;5028642;28;20077;-77
2021/06/24 04:37:59;;;;;;;17.77;11.45;;;18.00;82.80;;;17.61;73.11;100904.94;5028204;28;20099;-77
2021/06/24 04:40:28;;;;;;;18.07;11.43;;;18.10;82.80;;;17.62;73.09;100903.03;5028480;28;20068;-77
2021/06/24 04:42:57;;;;;;;18.42;10.77;;;18.10;82.60;;;17.61;73.21;100898.59;5028366;28;20391;-77
2021/06/24 04:45:26;;;;;;;18.60;10.45;;;18.10;82.70;;;17.61;73.38;100893.94;5029979;28;20053;-77
2021/06/24 04:48:26;;;;;;;19.67;11.80;;;18.10;82.70;;;17.62;73.27;100890.09;5022801;28;20088;-77
2021/06/24 04:51:13;;;;;;;18.52;12.20;;;18.10;82.50;;;17.62;73.42;100892.03;5029994;28;20128;-77
2021/06/24 04:53:41;;;;;;;21.80;12.60;;;18.10;82.60;;;17.63;73.28;100890.94;5028057;28;20053;-77
2021/06/24 04:56:14;;;;;;;22.27;12.05;;;18.20;82.50;;;17.63;73.40;100896.44;5027914;28;20807;-77
2021/06/24 04:58:41;;;;;;;19.88;11.73;;;18.20;82.10;;;17.62;73.54;100889.28;5029338;28;20502;-77
2021/06/24 05:01:44;;;;;;;22.48;12.50;;;18.30;82.10;;;17.66;73.45;100893.25;4987445;28;20165;-78
2021/06/24 05:04:30;;;;;;;23.67;12.77;;;18.30;82.00;;;17.68;73.38;100893.88;5026513;28;20087;-76
2021/06/24 05:07:02;;;;;;;20.02;11.57;;;18.40;81.90;;;17.68;73.34;100889.22;5029269;28;20549;-76
2021/06/24 05:09:32;;;;;;;24.83;12.93;;;18.40;82.00;;;17.70;73.29;100898.09;5029266;28;20042;-77
2021/06/24 05:11:59;;;;;;;21.17;11.30;;;18.30;81.80;;;17.70;73.22;100900.84;5029413;28;20050;-77
2021/06/24 05:14:26;;;;;;;20.95;12.32;;;18.30;82.10;;;17.68;73.52;100900.22;5029270;28;20124;-77
2021/06/24 05:16:54;;;;;;;21.73;13.05;;;18.30;82.30;;;17.69;73.44;100898.34;5029072;28;20061;-77
2021/06/24 05:19:21;;;;;;;18.75;12.40;;;18.30;82.40;;;17.71;73.31;100904.47;5027618;28;20069;-77
2021/06/24 05:21:48;;;;;;;19.20;13.02;;;18.20;82.30;;;17.71;73.24;100898.97;5010368;28;20068;-78
2021/06/24 05:24:17;;;;;;;26.98;13.18;;;18.20;82.30;;;17.71;73.29;100899.78;5009520;28;20046;-78
2021/06/24 05:26:44;;;;;;;23.40;13.10;;;18.20;82.30;;;17.72;73.24;100900.63;5008861;28;20054;-77
2021/06/24 05:29:11;;;;;;;24.70;13.50;;;18.30;82.30;;;17.71;73.36;100893.44;5009144;28;20163;-78
2021/06/24 05:31:39;;;;;;;20.38;12.50;;;18.30;82.20;;;17.71;73.42;100894.28;5009204;28;20077;-77
2021/06/24 05:34:06;;;;;;;24.55;13.70;;;18.30;82.30;;;17.73;73.25;100896.81;5008976;28;20052;-77
2021/06/24 05:36:34;;;;;;;23.17;11.85;;;18.30;81.90;;;17.74;73.18;100895.75;5008915;28;20188;-77
2021/06/24 05:39:01;;;;;;;20.20;12.30;;;18.30;82.10;;;17.75;73.20;100890.03;5009137;28;20042;-78
2021/06/24 05:41:30;;;;;;;25.70;12.75;;;18.30;82.10;;;17.75;73.33;100886.44;5009305;28;20421;-78
2021/06/24 05:43:58;;;;;;;23.40;13.07;;;18.30;82.20;;;17.74;73.32;100898.50;5009144;28;20050;-76
2021/06/24 05:46:26;;;;;;;24.25;13.27;;;18.30;82.20;;;17.74;73.23;100888.34;5011201;28;20096;-77
2021/06/24 05:48:53;;;;;;;21.67;13.30;;;18.30;82.20;;;17.75;73.13;100889.19;5026563;28;20052;-77
2021/06/24 05:51:22;;;;;;;19.05;12.85;;;18.30;82.50;;;17.76;73.39;100890.84;5027822;28;20527;-77
2021/06/24 05:53:50;;;;;;;26.05;13.80;;;18.30;82.60;;;17.75;73.82;100887.25;5028200;28;20072;-76
2021/06/24 05:56:17;;;;;;;23.17;12.48;;;18.30;82.70;;;17.74;73.81;100890.22;5028352;28;20042;-77
2021/06/24 05:58:46;;;;;;;24.45;13.55;;;18.30;82.70;;;17.75;73.46;100889.19;5028328;28;20115;-80
2021/06/24 06:01:14;;;;;;;22.40;14.00;;;18.30;82.50;;;17.76;73.53;100893.59;5027682;28;20053;-77
2021/06/24 06:03:42;;;;;;;20.08;13.43;;;18.30;82.30;;;17.76;73.46;100890.84;5025477;28;21908;-77
2021/06/24 06:06:09;;;;;;;27.70;13.35;;;18.40;82.20;;;17.78;73.59;100899.72;5028002;28;20041;-78
2021/06/24 06:08:36;;;;;;;25.33;13.45;;;18.40;82.10;;;17.78;73.28;100894.22;5025887;28;20091;-77
2021/06/24 06:11:04;;;;;;;26.73;13.98;;;18.40;82.00;;;17.80;73.30;100900.38;5008554;28;20085;-77
2021/06/24 06:13:31;;;;;;;24.92;13.57;;;18.50;81.80;;;17.81;73.73;100896.53;5008545;28;20050;-77
2021/06/24 06:16:00;;;;;;;25.05;13.23;;;18.50;82.10;;;17.82;73.40;100894.63;5008507;28;20053;-76
2021/06/24 06:18:27;;;;;;;23.85;13.95;;;18.50;81.70;;;17.81;73.36;100893.78;5008550;28;20041;-76
2021/06/24 06:20:57;;;;;;;25.63;13.90;;;18.50;81.80;;;17.82;73.29;100887.22;5021687;28;20053;-76
2021/06/24 06:23:27;;;;;;;27.17;13.60;;;18.40;81.70;;;17.82;73.31;100883.63;5028209;28;20045;-76
2021/06/24 06:25:54;;;;;;;22.90;13.93;;;18.40;82.10;;;17.84;73.39;100875.97;5027872;28;20536;-77
2021/06/24 06:28:24;;;;;;;24.70;13.77;;;18.40;82.00;;;17.82;73.32;100884.47;5027987;28;20632;-76
2021/06/24 06:30:54;;;;;;;26.83;13.98;;;18.50;82.10;;;17.83;73.58;100888.91;5027915;28;20382;-77
2021/06/24 06:33:23;;;;;;;24.30;13.73;;;18.50;82.20;;;17.81;73.72;100888.28;5028191;28;20045;-77
2021/06/24 06:35:51;;;;;;;25.95;14.57;;;18.50;82.20;;;17.82;73.48;100878.97;5027836;28;20239;-76
2021/06/24 06:38:19;;;;;;;22.25;12.48;;;18.40;82.00;;;17.83;73.52;100885.31;5027825;28;20506;-78
2021/06/24 06:40:46;;;;;;;24.60;13.35;;;18.50;82.30;;;17.83;73.47;100888.91;5027711;28;20490;-78
2021/06/24 06:43:15;;;;;;;22.45;13.48;;;18.50;82.10;;;17.86;73.48;100893.13;5028022;28;20513;-75
2021/06/24 06:45:43;;;;;;;25.15;14.75;;;18.50;81.70;;;17.85;73.48;100897.81;5029532;28;20045;-76
2021/06/24 06:48:10;;;;;;;29.50;14.02;;;18.50;82.00;;;17.86;73.60;100893.13;5032076;28;20046;-76
2021/06/24 06:50:40;;;;;;;26.05;14.02;;;18.50;82.10;;;17.85;73.70;100888.72;5031930;28;20061;-76
2021/06/24 06:53:07;;;;;;;26.23;15.45;;;18.50;82.20;;;17.87;74.04;100892.09;5031953;28;20041;-76
2021/06/24 06:55:35;;;;;;;26.20;14.35;;;18.50;82.70;;;17.86;73.88;100887.63;5032008;28;20103;-76
2021/06/24 06:58:03;;;;;;;23.60;13.60;;;18.50;82.10;;;17.88;73.73;100889.13;5031253;28;20042;-76
2021/06/24 07:00:31;;;;;;;23.45;13.60;;;18.50;82.20;;;17.89;73.71;100878.94;5031816;28;20132;-76
2021/06/24 07:02:59;;;;;;;22.15;14.30;;;18.50;82.50;;;17.86;73.91;100888.50;5031812;28;20041;-76
2021/06/24 07:05:27;;;;;;;26.45;15.18;;;18.50;82.70;;;17.87;73.96;100892.09;5031797;28;20127;-76
2021/06/24 07:07:56;;;;;;;22.95;14.13;;;18.50;82.60;;;17.88;73.94;100891.03;5031347;28;20053;-76
2021/06/24 07:10:24;;;;;;;28.90;14.68;;;18.50;82.40;;;17.88;74.04;100878.09;5031458;28;20045;-76
2021/06/24 07:12:51;;;;;;;32.03;14.93;;;18.60;82.40;;;17.88;74.00;100878.09;5029325;28;20140;-76
2021/06/24 07:15:18;;;;;;;28.13;15.52;;;18.60;82.00;;;17.90;74.13;100886.97;5029227;28;20049;-75
2021/06/24 07:17:46;;;;;;;29.20;15.90;;;18.70;82.40;;;17.92;74.64;100876.56;5031320;28;20446;-76
2021/06/24 07:20:14;;;;;;;25.35;15.38;;;18.90;82.20;;;17.97;74.40;100879.50;5031490;28;20682;-76
2021/06/24 07:22:41;;;;;;;22.42;14.05;;;19.10;81.20;;;18.04;74.78;100884.13;5031544;28;20076;-76
2021/06/24 07:25:14;;;;;;;29.58;15.25;;;19.50;80.40;;;18.09;74.21;100882.38;5031457;28;20111;-76
2021/06/24 07:27:42;;;;;;;26.77;15.45;;;19.60;78.90;;;18.16;74.03;100879.53;5031326;28;20132;-76
2021/06/24 07:30:10;;;;;;;25.17;15.07;;;19.80;78.30;;;18.22;73.99;100888.81;5030722;28;20045;-77
2021/06/24 07:32:38;;;;;;;21.80;14.00;;;19.90;77.80;;;18.26;73.66;100887.28;5028249;28;20679;-76
2021/06/24 07:35:07;;;;;;;24.65;13.98;;;20.00;77.90;;;18.32;74.24;100890.00;5011435;28;20053;-76
2021/06/24 07:37:34;;;;;;;25.42;15.65;;;20.00;77.90;;;18.36;75.08;100882.94;5010978;28;20160;-78
2021/06/24 07:40:01;;;;;;;24.98;14.70;;;20.10;78.30;;;18.42;75.00;100894.16;5011269;28;20050;-76
2021/06/24 07:42:30;;;;;;;26.38;16.02;;;20.30;78.10;;;18.44;73.69;100889.25;5010631;28;20049;-76
2021/06/24 07:44:57;;;;;;;24.70;15.55;;;20.20;76.20;;;18.45;73.76;100891.78;5011111;28;20053;-75
2021/06/24 07:47:24;;;;;;;31.20;17.35;;;20.10;77.40;;;18.49;73.60;100892.19;5010883;28;20062;-76
2021/06/24 07:49:52;;;;;;;23.70;15.98;;;20.20;77.50;;;18.52;74.13;100888.94;5018570;28;20136;-76
2021/06/24 07:52:19;;;;;;;33.22;17.95;;;20.30;77.20;;;18.57;73.05;100886.34;5030947;28;20570;-76
2021/06/24 07:54:46;;;;;;;26.75;17.15;;;20.30;75.90;;;18.60;72.90;100880.41;5030848;28;20052;-76
2021/06/24 07:57:13;;;;;;;23.73;16.52;;;20.30;75.80;;;18.64;72.87;100881.63;5030539;28;20045;-76
2021/06/24 07:59:42;;;;;;;23.88;17.08;;;20.40;76.20;;;18.67;73.04;100883.91;5030728;28;20073;-76
2021/06/24 08:02:10;;;;;;;28.35;16.50;;;20.40;75.70;;;18.70;72.93;100877.94;5030618;28;20142;-75
2021/06/24 08:04:37;;;;;;;32.92;18.42;;;20.60;75.80;;;18.78;73.03;100887.81;5030614;28;20645;-75
2021/06/24 08:07:04;;;;;;;25.50;17.25;;;20.80;74.70;;;18.83;72.55;100878.88;5030444;28;20083;-76
2021/06/24 08:09:32;;;;;;;30.67;16.98;;;20.90;74.20;;;18.90;73.01;100865.84;5030186;28;20103;-76
2021/06/24 08:11:59;;;;;;;25.27;18.02;;;21.10;74.50;;;18.97;73.47;100874.88;5030460;28;20417;-76
2021/06/24 08:14:27;;;;;;;28.60;17.73;;;21.30;74.20;;;19.04;73.19;100878.41;5030283;28;20096;-76
2021/06/24 08:16:56;;;;;;;28.38;17.77;;;21.40;73.30;;;19.11;72.78;100873.66;5029878;28;20420;-76
2021/06/24 08:19:23;;;;;;;28.48;18.13;;;21.40;73.40;;;19.14;72.35;100870.41;5030386;28;20037;-76
2021/06/24 08:21:51;;;;;;;30.45;18.15;;;21.50;72.70;;;19.17;72.07;100877.38;5030194;28;20131;-76
2021/06/24 08:24:19;;;;;;;26.38;18.20;;;21.40;72.60;;;19.17;71.56;100871.84;5029001;28;20144;-76
2021/06/24 08:26:46;;;;;;;28.15;18.17;;;21.30;72.50;;;19.18;71.23;100872.72;5030045;28;20099;-76
2021/06/24 08:29:14;;;;;;;25.27;17.60;;;21.00;72.80;;;19.18;71.45;100876.31;5070141;22;20056;-88
2021/06/24 08:31:42;;;;;;;29.25;18.77;;;21.00;73.90;;;19.17;70.97;100880.13;5010557;28;20046;-88
2021/06/24 08:34:10;;;;;;;28.95;18.92;;;20.90;73.20;;;19.17;70.82;100879.28;5013076;28;20073;-89
2021/06/24 08:36:38;;;;;;;29.42;17.77;;;20.70;73.50;;;19.13;70.71;100879.78;5012436;28;20077;-89
2021/06/24 08:39:06;;;;;;;33.20;19.52;;;20.70;74.60;;;19.13;70.88;100877.03;4991803;28;20064;-88
2021/06/24 08:41:34;;;;;;;26.90;18.50;;;20.60;74.70;;;19.11;70.88;100870.91;4990756;28;20396;-88
2021/06/24 08:44:01;;;;;;;30.08;17.63;;;20.60;74.60;;;19.13;71.26;100876.16;4990524;28;20130;-87
2021/06/24 08:46:29;;;;;;;29.75;19.05;;;20.70;74.80;;;19.16;71.10;100866.59;4990356;28;20042;-89
2021/06/24 08:48:58;;;;;;;26.13;17.30;;;20.70;74.40;;;19.17;71.37;100869.09;4990607;28;20046;-88
2021/06/24 08:51:26;;;;;;;30.10;19.80;;;20.80;74.90;;;19.18;71.00;100870.78;4979349;28;20056;-89
2021/06/24 08:53:57;;;;;;;27.88;18.08;;;20.70;74.20;;;19.19;71.17;100878.00;4991303;28;20046;-88
2021/06/24 08:56:24;;;;;;;27.77;18.10;;;20.80;74.60;;;19.18;71.02;100869.97;4973897;28;20053;-89
2021/06/24 08:58:52;;;;;;;28.67;18.27;;;20.80;74.50;;;19.20;71.01;100863.13;4996716;28;20155;-89
2021/06/24 09:01:49;;;;;;;26.50;17.10;;;20.80;74.70;;;19.25;71.33;100865.19;4982483;28;20089;-88
2021/06/24 09:04:18;;;;;;;23.10;17.30;;;20.90;74.90;;;19.27;71.69;100866.63;4985784;28;20077;-89
2021/06/24 09:06:47;;;;;;;31.42;19.33;;;21.00;75.00;;;19.29;71.44;100874.69;4990558;28;20042;-90
2021/06/24 09:09:26;;;;;;;31.10;19.27;;;21.00;74.40;;;19.30;71.29;100870.84;4975637;28;20525;-88
2021/06/24 09:12:04;;;;;;;27.52;20.05;;;21.00;74.20;;;19.32;70.94;100866.78;4969960;28;20458;-88
2021/06/24 09:14:43;;;;;;;35.55;20.08;;;21.00;73.70;;;19.36;72.75;100872.66;4970187;28;20058;-88
2021/06/24 09:17:12;;;;;;;34.03;19.63;;;21.10;74.90;;;19.37;71.35;100873.50;4969219;28;20051;-89
2021/06/24 09:19:42;;;;;;;30.58;20.10;;;21.10;73.30;;;19.38;70.90;100875.19;4971308;28;20417;-88
2021/06/24 09:22:14;;;;;;;29.95;20.08;;;21.00;73.30;;;19.38;71.08;100867.78;4969666;28;20065;-88
2021/06/24 09:24:44;;;;;;;36.25;23.27;;;21.00;74.00;;;19.40;71.17;100873.03;4971252;28;20105;-90
2021/06/24 09:27:28;;;;;;;33.25;21.27;;;21.10;73.80;;;19.42;73.33;100877.25;4968894;28;20047;-93
2021/06/24 09:30:08;;;;;;;30.15;21.05;;;21.20;74.90;;;19.44;71.46;100872.34;4984750;28;20046;-86
2021/06/24 09:32:37;;;;;;;29.95;20.98;;;21.20;73.30;;;19.47;71.27;100874.63;4990781;28;20046;-84
2021/06/24 09:35:07;;;;;;;26.60;19.35;;;21.30;73.60;;;19.51;71.47;100875.00;4988040;28;20050;-84
2021/06/24 09:38:06;;;;;;;35.10;22.33;;;21.40;73.30;;;19.52;71.69;100874.75;4987609;28;20045;-83
2021/06/24 09:40:42;;;;;;;34.97;22.60;;;21.40;74.30;;;19.50;71.87;100874.16;4989319;28;20129;-83
2021/06/24 09:43:29;;;;;;;33.42;21.85;;;21.30;74.20;;;19.52;71.33;100883.03;4989587;28;20042;-83
2021/06/24 09:46:02;;;;;;;30.83;21.80;;;21.30;73.20;;;19.53;70.35;100872.84;4971724;28;20046;-83
2021/06/24 09:48:37;;;;;;;29.35;20.50;;;21.20;72.90;;;19.56;70.40;100860.50;4989478;28;20049;-85
2021/06/24 09:51:17;;;;;;;32.90;22.17;;;21.20;73.10;;;19.59;70.61;100866.41;4988943;28;20042;-85
2021/06/24 09:53:57;;;;;;;33.35;20.80;;;21.40;73.00;;;19.63;70.70;100855.69;4971975;28;20493;-86
2021/06/24 09:56:32;;;;;;;32.63;20.65;;;21.60;72.70;;;19.69;71.16;100857.53;4971052;28;20043;-84
2021/06/24 09:59:03;;;;;;;32.10;23.08;;;21.70;72.80;;;19.71;70.53;100866.41;4989171;28;20077;-84
2021/06/24 10:01:34;;;;;;;28.83;21.70;;;21.70;71.70;;;19.73;70.45;100867.06;4988241;28;20042;-84
2021/06/24 10:04:04;;;;;;;36.05;23.58;;;21.70;72.20;;;19.73;70.21;100872.56;4988211;28;20050;-84
2021/06/24 10:06:32;;;;;;;33.20;22.17;;;21.70;71.80;;;19.73;69.69;100867.06;4984947;28;20057;-83
2021/06/24 10:09:01;;;;;;;34.15;22.73;;;21.70;71.70;;;19.72;69.74;100862.59;4965170;28;20124;-84
2021/06/24 10:11:28;;;;;;;30.95;22.23;;;21.50;71.40;;;19.72;69.87;100865.34;4990662;28;20100;-83
2021/06/24 10:13:56;;;;;;;32.80;23.55;;;21.50;72.20;;;19.71;69.64;100858.13;4983811;28;20419;-84
2021/06/24 10:16:27;;;;;;;36.25;24.05;;;21.40;71.70;;;19.71;69.58;100870.00;4972980;28;20105;-84
2021/06/24 10:18:58;;;;;;;33.75;24.23;;;21.30;71.90;;;19.72;69.36;100862.59;4971798;28;20494;-84